Tobin, Arkansas
Current Conditions -  °F | °C
As of 11:56 AM on Thursday 30 Oct 2014 (Local Time) from KADF Reporting Station
Clear Clear  
Wind Chill: 68°   Ceiling: Unl
Heat Index: 68°   Visibility: 10mi
Dew Point: 56°   Wind: 7mph
Humidity: 65%   Direction: 220°SW
Pressure: 30.17"   Gusts: NA
Location:  34.0586°N, 93.5318°W
Report Text: KADF 301656Z AUTO 22006KT 10SM CLR 20/13 A3017 RMK AO2 T02000133 SLP229
Loading
Personal Weather Stations






























Interactive Weather Map
Tropical Storm Tracking
New forecast layout! Learn more

10-Day Weather Forecast

Advertisements
Track Severe Weather on mobile